createdAt,value
2023-01-07T00:00:09.536Z,100719.27
2023-01-07T00:03:00.882Z,100725.20
2023-01-07T00:05:29.991Z,100734.05
2023-01-07T00:07:59.809Z,100741.52
2023-01-07T00:10:28.381Z,100744.38
2023-01-07T00:12:58.363Z,100748.32
2023-01-07T00:15:27.542Z,100751.23
2023-01-07T00:17:56.225Z,100758.27
2023-01-07T00:20:27.766Z,100755.80
2023-01-07T00:22:56.481Z,100760.30
2023-01-07T00:25:25.079Z,100758.11
2023-01-07T00:27:53.973Z,100760.38
2023-01-07T00:30:23.237Z,100767.43
2023-01-07T00:32:59.319Z,100767.25
2023-01-07T00:35:29.439Z,100769.48
2023-01-07T00:38:01.786Z,100769.02
2023-01-07T00:40:35.196Z,100770.83
2023-01-07T00:43:06.473Z,100775.21
2023-01-07T00:45:38.840Z,100776.33
2023-01-07T00:48:09.662Z,100774.76
2023-01-07T00:50:39.233Z,100774.01
2023-01-07T00:53:15.419Z,100766.31
2023-01-07T00:55:45.045Z,100767.40
2023-01-07T00:58:16.288Z,100771.19
2023-01-07T01:00:45.310Z,100766.00
2023-01-07T01:03:15.096Z,100770.92
2023-01-07T01:05:43.800Z,100794.83
2023-01-07T01:08:23.023Z,100784.32
2023-01-07T01:10:50.777Z,100799.80
2023-01-07T01:13:19.439Z,100795.94
2023-01-07T01:15:51.216Z,100795.65
2023-01-07T01:18:20.420Z,100795.50
2023-01-07T01:20:50.214Z,100791.15
2023-01-07T01:23:19.029Z,100792.83
2023-01-07T01:25:50.483Z,100794.02
2023-01-07T01:28:20.218Z,100793.02
2023-01-07T01:30:58.968Z,100796.74
2023-01-07T01:33:29.666Z,100796.22
2023-01-07T01:35:59.798Z,100792.63
2023-01-07T01:38:29.653Z,100795.45
2023-01-07T01:40:59.134Z,100795.36
2023-01-07T01:43:36.987Z,100798.33
2023-01-07T01:46:11.656Z,100799.03
2023-01-07T01:48:46.329Z,100797.15
2023-01-07T01:51:21.924Z,100799.89
2023-01-07T01:53:54.258Z,100801.75
2023-01-07T01:56:27.555Z,100802.36
2023-01-07T01:59:03.932Z,100801.61
2023-01-07T02:01:40.446Z,100804.71
2023-01-07T02:04:16.491Z,100808.70
2023-01-07T02:06:50.694Z,100808.04
2023-01-07T02:09:19.839Z,100806.55
2023-01-07T02:11:59.922Z,100803.84
2023-01-07T02:14:57.431Z,100806.64
2023-01-07T02:17:35.533Z,100808.98
2023-01-07T02:20:23.645Z,100803.27
2023-01-07T02:23:16.320Z,100798.65
2023-01-07T02:26:16.921Z,100799.77
2023-01-07T02:29:14.061Z,100793.52
2023-01-07T02:32:04.828Z,100793.41
2023-01-07T02:34:43.611Z,100795.38
2023-01-07T02:37:29.225Z,100797.67
2023-01-07T02:40:11.136Z,100797.27
2023-01-07T02:42:49.805Z,100803.13
2023-01-07T02:45:27.509Z,100803.84
2023-01-07T02:48:01.728Z,100802.82
2023-01-07T02:50:33.388Z,100798.77
2023-01-07T02:53:09.959Z,100791.36
2023-01-07T02:55:53.272Z,100792.64
2023-01-07T02:58:50.428Z,100795.67
2023-01-07T03:01:49.760Z,100795.91
2023-01-07T03:04:36.799Z,100793.73
2023-01-07T03:07:33.355Z,100794.95
2023-01-07T03:10:11.249Z,100794.94
2023-01-07T03:12:46.122Z,100799.92
2023-01-07T03:15:20.646Z,100799.25
2023-01-07T03:17:55.173Z,100801.48
2023-01-07T03:20:26.932Z,100804.80
2023-01-07T03:22:58.268Z,100806.95
2023-01-07T03:25:30.821Z,100807.31
2023-01-07T03:28:11.013Z,100809.34
2023-01-07T03:30:40.630Z,100809.23
2023-01-07T03:33:17.194Z,100809.23
2023-01-07T03:35:50.413Z,100810.05
2023-01-07T03:38:23.321Z,100811.90
2023-01-07T03:40:52.842Z,100811.23
2023-01-07T03:43:23.399Z,100807.88
2023-01-07T03:45:54.301Z,100811.46
2023-01-07T03:48:23.961Z,100804.25
2023-01-07T03:50:53.256Z,100795.48
2023-01-07T03:53:22.320Z,100796.54
2023-01-07T03:55:54.388Z,100798.60
2023-01-07T03:58:23.375Z,100797.06
2023-01-07T04:00:55.484Z,100799.25
2023-01-07T04:03:24.564Z,100801.10
2023-01-07T04:05:53.329Z,100805.16
2023-01-07T04:08:22.863Z,100805.37
2023-01-07T04:10:52.185Z,100808.19
2023-01-07T04:13:21.289Z,100808.33
2023-01-07T04:15:54.536Z,100808.15
2023-01-07T04:18:24.871Z,100804.45
2023-01-07T04:20:56.395Z,100796.39
2023-01-07T04:23:25.929Z,100798.67
2023-01-07T04:25:56.742Z,100802.46
2023-01-07T04:28:26.498Z,100799.48
2023-01-07T04:30:58.341Z,100800.47
2023-01-07T04:33:27.479Z,100803.06
2023-01-07T04:36:02.474Z,100802.79
2023-01-07T04:38:32.079Z,100800.83
2023-01-07T04:41:01.445Z,100801.90
2023-01-07T04:43:32.860Z,100798.67
2023-01-07T04:49:13.182Z,100796.55
2023-01-07T04:51:42.636Z,100802.36
2023-01-07T04:54:11.849Z,100803.64
2023-01-07T04:56:40.842Z,100804.27
2023-01-07T04:59:10.106Z,100807.07
2023-01-07T05:01:46.871Z,100806.81
2023-01-07T05:04:18.622Z,100810.24
2023-01-07T05:06:47.835Z,100814.00
2023-01-07T05:09:17.794Z,100818.41
2023-01-07T05:11:47.302Z,100818.58
2023-01-07T05:14:19.002Z,100821.79
2023-01-07T05:16:49.128Z,100821.79
2023-01-07T05:19:21.620Z,100828.66
2023-01-07T05:21:54.281Z,100834.69
2023-01-07T05:24:23.724Z,100832.88
2023-01-07T05:26:55.853Z,100843.23
2023-01-07T05:29:25.395Z,100844.64
2023-01-07T05:31:54.675Z,100836.90
2023-01-07T05:34:30.904Z,100844.42
2023-01-07T05:37:00.093Z,100845.30
2023-01-07T05:39:29.343Z,100852.92
2023-01-07T05:42:23.184Z,100855.14
2023-01-07T05:44:53.445Z,100853.77
2023-01-07T05:47:28.338Z,100858.95
2023-01-07T05:50:00.135Z,100858.67
2023-01-07T05:52:29.537Z,100857.69
2023-01-07T05:54:58.727Z,100861.81
2023-01-07T05:57:51.938Z,100857.07
2023-01-07T06:00:30.810Z,100858.69
2023-01-07T06:03:00.141Z,100852.55
2023-01-07T06:05:38.138Z,100855.20
2023-01-07T06:08:09.212Z,100853.11
2023-01-07T06:10:41.861Z,100852.65
2023-01-07T06:13:12.395Z,100853.75
2023-01-07T06:18:42.264Z,100864.78
2023-01-07T06:21:11.561Z,100866.29
2023-01-07T06:23:45.323Z,100870.80
2023-01-07T06:26:14.577Z,100873.26
2023-01-07T06:28:48.739Z,100871.61
2023-01-07T06:31:27.784Z,100874.91
2023-01-07T06:33:57.349Z,100874.89
2023-01-07T06:36:26.331Z,100874.13
2023-01-07T06:38:55.697Z,100873.39
2023-01-07T06:41:26.086Z,100878.16
2023-01-07T06:44:00.884Z,100879.09
2023-01-07T06:46:31.054Z,100883.33
2023-01-07T06:49:01.216Z,100890.52
2023-01-07T06:54:19.427Z,100901.54
2023-01-07T06:59:53.831Z,100908.70
2023-01-07T07:02:28.410Z,100912.13
2023-01-07T07:04:57.600Z,100916.23
2023-01-07T07:07:57.811Z,100921.36
2023-01-07T07:10:26.811Z,100922.73
2023-01-07T07:12:55.981Z,100922.84
2023-01-07T07:15:24.868Z,100928.88
2023-01-07T07:17:53.694Z,100929.48
2023-01-07T07:20:22.786Z,100935.16
2023-01-07T07:22:52.963Z,100934.59
2023-01-07T07:25:38.798Z,100934.44
2023-01-07T07:28:07.930Z,100932.11
2023-01-07T07:31:01.295Z,100934.42
2023-01-07T07:33:53.491Z,100932.53
2023-01-07T07:36:25.051Z,100935.39
2023-01-07T07:38:54.969Z,100934.72
2023-01-07T07:41:24.045Z,100936.33
2023-01-07T07:43:58.589Z,100934.83
2023-01-07T07:46:36.260Z,100934.98
2023-01-07T07:49:17.895Z,100939.61
2023-01-07T07:51:57.831Z,100940.04
2023-01-07T07:54:35.212Z,100941.25
2023-01-07T07:57:06.321Z,100936.29
2023-01-07T07:59:35.411Z,100937.96
2023-01-07T08:02:04.898Z,100949.17
2023-01-07T08:04:34.386Z,100948.40
2023-01-07T08:07:03.392Z,100949.92
2023-01-07T08:09:32.549Z,100951.27
2023-01-07T08:12:03.103Z,100949.05
2023-01-07T08:14:32.496Z,100949.86
2023-01-07T08:17:01.269Z,100953.46
2023-01-07T08:19:30.264Z,100952.11
2023-01-07T08:21:59.930Z,100948.52
2023-01-07T08:24:29.173Z,100952.27
2023-01-07T08:26:58.077Z,100953.83
2023-01-07T08:29:27.383Z,100955.73
2023-01-07T08:31:56.275Z,100953.70
2023-01-07T08:34:27.305Z,100950.29
2023-01-07T08:36:58.080Z,100948.00
2023-01-07T08:39:27.437Z,100944.02
2023-01-07T08:41:57.045Z,100945.48
2023-01-07T08:44:26.131Z,100947.20
2023-01-07T08:46:55.300Z,100949.58
2023-01-07T08:49:24.073Z,100952.28
2023-01-07T08:51:55.249Z,100952.19
2023-01-07T08:54:23.940Z,100954.81
2023-01-07T08:56:54.906Z,100958.05
2023-01-07T08:59:23.588Z,100963.77
2023-01-07T09:01:53.624Z,100960.68
2023-01-07T09:04:22.811Z,100959.50
2023-01-07T09:06:52.604Z,100958.82
2023-01-07T09:09:22.060Z,100961.41
2023-01-07T09:11:53.004Z,100961.55
2023-01-07T09:14:22.117Z,100957.13
2023-01-07T09:16:53.035Z,100957.02
2023-01-07T09:19:21.987Z,100956.11
2023-01-07T09:21:54.255Z,100959.11
2023-01-07T09:24:22.872Z,100959.16
2023-01-07T09:26:53.401Z,100958.05
2023-01-07T09:29:22.122Z,100950.80
2023-01-07T09:31:52.973Z,100955.84
2023-01-07T09:34:22.324Z,100954.00
2023-01-07T09:36:52.452Z,100956.02
2023-01-07T09:39:21.278Z,100959.23
2023-01-07T09:41:58.400Z,100956.89
2023-01-07T09:44:41.439Z,100956.14
2023-01-07T09:47:17.214Z,100957.26
2023-01-07T09:49:50.401Z,100957.43
2023-01-07T09:52:31.380Z,100961.52
2023-01-07T09:55:07.844Z,100962.58
2023-01-07T09:57:37.122Z,100959.40
2023-01-07T10:00:17.062Z,100960.88
2023-01-07T10:03:04.209Z,100961.45
2023-01-07T10:05:39.418Z,100963.54
2023-01-07T10:08:29.858Z,100965.33
2023-01-07T10:11:15.396Z,100960.46
2023-01-07T10:14:07.538Z,100954.45
2023-01-07T10:16:47.585Z,100951.00
2023-01-07T10:19:33.019Z,100949.86
2023-01-07T10:22:16.931Z,100951.01
2023-01-07T10:24:56.966Z,100949.83
2023-01-07T10:27:35.493Z,100946.02
2023-01-07T10:30:12.889Z,100943.52
2023-01-07T10:32:43.629Z,100936.15
2023-01-07T10:35:20.296Z,100932.40
2023-01-07T10:37:52.658Z,100929.57
2023-01-07T10:40:37.354Z,100930.08
2023-01-07T10:43:20.152Z,100923.59
2023-01-07T10:46:15.164Z,100923.83
2023-01-07T10:49:11.158Z,100922.23
2023-01-07T10:52:00.356Z,100918.70
2023-01-07T10:54:49.835Z,100911.70
2023-01-07T10:57:24.842Z,100909.05
2023-01-07T11:00:02.367Z,100907.23
2023-01-07T11:02:32.658Z,100908.80
2023-01-07T11:05:01.979Z,100908.95
2023-01-07T11:07:42.911Z,100907.14
2023-01-07T11:10:21.495Z,100906.02
2023-01-07T11:12:54.295Z,100912.75
2023-01-07T11:15:28.345Z,100909.59
2023-01-07T11:18:00.858Z,100909.05
2023-01-07T11:20:50.374Z,100907.98
2023-01-07T11:23:30.458Z,100904.91
2023-01-07T11:26:25.258Z,100901.58
2023-01-07T11:29:13.916Z,100898.05
2023-01-07T11:32:00.068Z,100895.94
2023-01-07T11:34:36.278Z,100892.34
2023-01-07T11:37:05.683Z,100891.04
2023-01-07T11:39:36.651Z,100890.44
2023-01-07T11:42:31.420Z,100890.04
2023-01-07T11:45:13.530Z,100884.08
2023-01-07T11:47:56.951Z,100883.58
2023-01-07T11:50:36.644Z,100882.39
2023-01-07T11:53:22.369Z,100881.58
2023-01-07T11:56:00.306Z,100874.00
2023-01-07T11:58:31.602Z,100870.41
2023-01-07T12:01:27.946Z,100866.05
2023-01-07T12:04:19.969Z,100863.05
2023-01-07T12:06:52.378Z,100862.98
2023-01-07T12:09:35.352Z,100855.94
2023-01-07T12:12:33.839Z,100856.78
2023-01-07T12:15:06.306Z,100852.00
2023-01-07T12:17:38.724Z,100850.55
2023-01-07T12:20:38.735Z,100851.60
2023-01-07T12:23:27.221Z,100849.59
2023-01-07T12:26:05.594Z,100844.58
2023-01-07T12:29:01.786Z,100843.51
2023-01-07T12:31:43.867Z,100843.64
2023-01-07T12:34:30.519Z,100838.65
2023-01-07T12:37:03.747Z,100840.55
2023-01-07T12:39:39.182Z,100844.38
2023-01-07T12:42:16.773Z,100846.70
2023-01-07T12:44:56.164Z,100846.42
2023-01-07T12:47:34.786Z,100842.30
2023-01-07T12:50:13.540Z,100839.73
2023-01-07T12:52:44.400Z,100835.88
2023-01-07T12:55:21.166Z,100835.11
2023-01-07T12:58:04.879Z,100826.81
2023-01-07T13:00:41.267Z,100827.94
2023-01-07T13:03:24.799Z,100831.39
2023-01-07T13:05:59.624Z,100830.54
2023-01-07T13:08:43.174Z,100834.71
2023-01-07T13:11:40.532Z,100838.55
2023-01-07T13:14:19.045Z,100841.92
2023-01-07T13:16:49.061Z,100843.90
2023-01-07T13:19:18.135Z,100844.46
2023-01-07T13:21:52.005Z,100845.38
2023-01-07T13:24:54.667Z,100849.13
2023-01-07T13:27:46.542Z,100851.02
2023-01-07T13:30:38.045Z,100851.17
2023-01-07T13:33:19.477Z,100850.03
2023-01-07T13:36:08.297Z,100853.77
2023-01-07T13:39:10.076Z,100857.32
2023-01-07T13:42:06.209Z,100854.84
2023-01-07T13:44:59.597Z,100856.80
2023-01-07T13:47:41.917Z,100860.70
2023-01-07T13:50:21.728Z,100858.87
2023-01-07T13:53:02.743Z,100859.86
2023-01-07T13:55:39.612Z,100861.98
2023-01-07T13:58:48.496Z,100863.91
2023-01-07T14:01:20.894Z,100870.77
2023-01-07T14:04:22.159Z,100871.63
2023-01-07T14:06:56.148Z,100870.78
2023-01-07T14:09:39.484Z,100879.09
2023-01-07T14:13:06.638Z,100881.73
2023-01-07T14:16:01.469Z,100884.04
2023-01-07T14:19:02.079Z,100884.71
2023-01-07T14:21:43.668Z,100890.45
2023-01-07T14:24:37.157Z,100892.80
2023-01-07T14:27:32.032Z,100894.55
2023-01-07T14:30:20.213Z,100901.14
2023-01-07T14:33:03.538Z,100900.83
2023-01-07T14:35:41.070Z,100899.42
2023-01-07T14:38:42.203Z,100897.83
2023-01-07T14:41:17.613Z,100901.14
2023-01-07T14:44:02.171Z,100898.51
2023-01-07T14:46:58.155Z,100901.41
2023-01-07T14:49:55.157Z,100898.52
2023-01-07T14:52:49.513Z,100898.26
2023-01-07T14:55:39.114Z,100898.21
2023-01-07T14:58:46.176Z,100899.80
2023-01-07T15:01:40.493Z,100899.08
2023-01-07T15:05:01.373Z,100897.52
2023-01-07T15:07:36.317Z,100902.87
2023-01-07T15:10:37.789Z,100898.71
2023-01-07T15:13:30.218Z,100903.63
2023-01-07T15:16:05.358Z,100907.02
2023-01-07T15:18:45.857Z,100898.23
2023-01-07T15:21:24.014Z,100893.55
2023-01-07T15:24:02.939Z,100890.61
2023-01-07T15:26:41.485Z,100891.70
2023-01-07T15:29:19.815Z,100892.74
2023-01-07T15:31:53.285Z,100889.50
2023-01-07T15:34:27.216Z,100894.02
2023-01-07T15:36:57.289Z,100898.27
2023-01-07T15:39:32.315Z,100904.77
2023-01-07T15:42:03.056Z,100901.80
2023-01-07T15:44:40.884Z,100904.58
2023-01-07T15:47:34.674Z,100907.20
2023-01-07T15:50:23.435Z,100903.86
2023-01-07T15:52:57.574Z,100902.87
2023-01-07T15:55:30.455Z,100900.35
2023-01-07T15:58:03.408Z,100898.07
2023-01-07T16:00:34.817Z,100901.95
2023-01-07T16:03:06.441Z,100907.53
2023-01-07T16:05:39.269Z,100908.09
2023-01-07T16:08:17.663Z,100909.37
2023-01-07T16:11:00.652Z,100908.85
2023-01-07T16:13:31.165Z,100904.30
2023-01-07T16:16:03.013Z,100905.08
2023-01-07T16:18:32.755Z,100902.52
2023-01-07T16:21:07.821Z,100902.64
2023-01-07T16:23:38.182Z,100900.86
2023-01-07T16:26:13.086Z,100901.61
2023-01-07T16:28:46.580Z,100891.33
2023-01-07T16:31:20.927Z,100891.23
2023-01-07T16:33:55.820Z,100886.92
2023-01-07T16:36:29.750Z,100879.73
2023-01-07T16:39:13.991Z,100874.36
2023-01-07T16:41:48.477Z,100861.71
2023-01-07T16:44:58.936Z,100856.05
2023-01-07T16:47:29.589Z,100856.52
2023-01-07T16:50:19.388Z,100858.86
2023-01-07T16:52:55.445Z,100859.98
2023-01-07T16:55:46.626Z,100859.56
2023-01-07T16:58:37.366Z,100860.67
2023-01-07T17:01:10.507Z,100856.49
2023-01-07T17:03:53.807Z,100856.80
2023-01-07T17:06:30.279Z,100853.11
2023-01-07T17:09:00.162Z,100851.13
2023-01-07T17:11:37.847Z,100847.41
2023-01-07T17:14:47.406Z,100849.77
2023-01-07T17:17:30.862Z,100851.92
2023-01-07T17:20:18.585Z,100849.59
2023-01-07T17:22:49.296Z,100845.44
2023-01-07T17:25:24.644Z,100843.85
2023-01-07T17:27:58.884Z,100849.00
2023-01-07T17:30:41.339Z,100849.27
2023-01-07T17:33:15.382Z,100847.55
2023-01-07T17:35:50.391Z,100849.28
2023-01-07T17:38:21.572Z,100845.79
2023-01-07T17:41:08.353Z,100844.42
2023-01-07T17:43:37.726Z,100847.69
2023-01-07T17:46:11.103Z,100852.52
2023-01-07T17:48:40.534Z,100850.13
2023-01-07T17:51:11.908Z,100847.27
2023-01-07T17:53:46.820Z,100847.98
2023-01-07T17:56:17.311Z,100841.94
2023-01-07T17:58:48.912Z,100841.58
2023-01-07T18:01:21.100Z,100843.00
2023-01-07T18:03:53.590Z,100842.96
2023-01-07T18:06:24.394Z,100843.59
2023-01-07T18:08:56.726Z,100835.20
2023-01-07T18:11:46.855Z,100831.25
2023-01-07T18:14:21.784Z,100831.77
2023-01-07T18:16:54.456Z,100831.66
2023-01-07T18:19:23.994Z,100825.27
2023-01-07T18:21:56.165Z,100823.56
2023-01-07T18:24:30.503Z,100826.79
2023-01-07T18:27:02.314Z,100827.23
2023-01-07T18:29:35.107Z,100826.80
2023-01-07T18:32:09.352Z,100828.61
2023-01-07T18:34:40.465Z,100827.30
2023-01-07T18:37:15.300Z,100829.97
2023-01-07T18:39:54.361Z,100831.30
2023-01-07T18:42:29.767Z,100834.33
2023-01-07T18:44:59.190Z,100830.61
2023-01-07T18:47:29.084Z,100833.54
2023-01-07T18:50:01.701Z,100837.34
2023-01-07T18:52:33.281Z,100831.91
2023-01-07T18:55:03.144Z,100834.29
2023-01-07T18:57:32.197Z,100832.27
2023-01-07T19:00:01.868Z,100829.75
2023-01-07T19:02:31.615Z,100824.23
2023-01-07T19:05:04.066Z,100823.77
2023-01-07T19:07:37.319Z,100822.57
2023-01-07T19:10:08.187Z,100817.08
2023-01-07T19:12:39.050Z,100814.05
2023-01-07T19:15:11.827Z,100814.79
2023-01-07T19:17:43.173Z,100813.05
2023-01-07T19:20:14.877Z,100812.54
2023-01-07T19:22:46.947Z,100810.84
2023-01-07T19:25:19.868Z,100815.27
2023-01-07T19:27:53.434Z,100817.49
2023-01-07T19:30:23.208Z,100819.58
2023-01-07T19:32:54.028Z,100814.67
2023-01-07T19:35:23.281Z,100813.33
2023-01-07T19:37:54.124Z,100814.44
2023-01-07T19:40:24.052Z,100812.91
2023-01-07T19:42:56.419Z,100815.85
2023-01-07T19:45:25.650Z,100815.09
2023-01-07T19:47:55.049Z,100809.80
2023-01-07T19:50:28.021Z,100807.75
2023-01-07T19:53:01.237Z,100802.98
2023-01-07T19:55:34.296Z,100798.95
2023-01-07T19:58:03.974Z,100798.48
2023-01-07T20:00:42.462Z,100798.27
2023-01-07T20:03:12.686Z,100797.14
2023-01-07T20:05:44.747Z,100798.39
2023-01-07T20:08:40.659Z,100792.48
2023-01-07T20:11:17.743Z,100789.05
2023-01-07T20:13:48.857Z,100784.55
2023-01-07T20:16:25.501Z,100779.16
2023-01-07T20:18:56.497Z,100782.66
2023-01-07T20:21:28.442Z,100780.09
2023-01-07T20:23:58.617Z,100783.79
2023-01-07T20:26:34.343Z,100780.42
2023-01-07T20:29:05.598Z,100777.39
2023-01-07T20:31:38.040Z,100771.67
2023-01-07T20:34:15.511Z,100773.11
2023-01-07T20:36:47.525Z,100780.81
2023-01-07T20:39:16.595Z,100776.34
2023-01-07T20:41:46.536Z,100778.88
2023-01-07T20:44:17.757Z,100776.16
2023-01-07T20:46:48.229Z,100769.61
2023-01-07T20:49:17.436Z,100773.16
2023-01-07T20:51:51.980Z,100769.98
2023-01-07T20:54:24.559Z,100773.50
2023-01-07T20:56:55.437Z,100773.70
2023-01-07T20:59:24.861Z,100771.34
2023-01-07T21:02:00.769Z,100771.83
2023-01-07T21:04:31.359Z,100772.54
2023-01-07T21:07:00.470Z,100771.77
2023-01-07T21:09:33.268Z,100768.20
2023-01-07T21:12:04.401Z,100769.31
2023-01-07T21:14:33.231Z,100773.92
2023-01-07T21:17:03.205Z,100775.23
2023-01-07T21:19:32.948Z,100772.17
2023-01-07T21:22:01.779Z,100772.69
2023-01-07T21:24:32.087Z,100772.34
2023-01-07T21:27:02.840Z,100769.42
2023-01-07T21:29:31.984Z,100768.08
2023-01-07T21:32:03.814Z,100765.54
2023-01-07T21:34:33.037Z,100762.68
2023-01-07T21:37:01.831Z,100760.77
2023-01-07T21:39:30.608Z,100761.42
2023-01-07T21:41:59.447Z,100763.02
2023-01-07T21:44:30.068Z,100765.70
2023-01-07T21:46:59.435Z,100763.73
2023-01-07T21:49:28.600Z,100761.86
2023-01-07T21:51:57.386Z,100763.27
2023-01-07T21:54:28.831Z,100760.36
2023-01-07T21:56:57.832Z,100761.10
2023-01-07T21:59:27.679Z,100764.11
2023-01-07T22:01:59.129Z,100763.36
2023-01-07T22:04:29.702Z,100760.50
2023-01-07T22:06:58.707Z,100759.35
2023-01-07T22:09:28.664Z,100755.84
2023-01-07T22:11:57.667Z,100754.53
2023-01-07T22:14:29.351Z,100756.27
2023-01-07T22:16:58.321Z,100759.12
2023-01-07T22:19:28.531Z,100756.56
2023-01-07T22:21:57.862Z,100754.40
2023-01-07T22:24:28.134Z,100754.61
2023-01-07T22:26:58.386Z,100752.05
2023-01-07T22:29:33.022Z,100748.55
2023-01-07T22:32:02.827Z,100748.72
2023-01-07T22:34:32.933Z,100752.39
2023-01-07T22:37:09.910Z,100749.88
2023-01-07T22:39:52.176Z,100748.70
2023-01-07T22:42:34.581Z,100748.80
2023-01-07T22:45:15.361Z,100753.30
2023-01-07T22:47:49.048Z,100750.41
2023-01-07T22:50:19.180Z,100749.79
2023-01-07T22:52:48.252Z,100747.05
2023-01-07T22:55:18.051Z,100744.86
2023-01-07T22:57:47.279Z,100744.58
2023-01-07T23:00:37.677Z,100739.79
2023-01-07T23:03:07.141Z,100737.21
2023-01-07T23:05:37.447Z,100739.02
2023-01-07T23:08:07.885Z,100732.23
2023-01-07T23:10:37.701Z,100733.77
2023-01-07T23:13:06.961Z,100730.65
2023-01-07T23:15:38.759Z,100728.89
2023-01-07T23:18:11.639Z,100726.37
2023-01-07T23:20:43.005Z,100724.80
2023-01-07T23:23:12.757Z,100722.23
2023-01-07T23:25:46.627Z,100719.55
2023-01-07T23:28:16.648Z,100719.05
2023-01-07T23:30:46.255Z,100723.11
2023-01-07T23:33:15.009Z,100721.30
2023-01-07T23:35:43.735Z,100719.67
2023-01-07T23:38:12.457Z,100715.20
2023-01-07T23:40:43.852Z,100712.52
2023-01-07T23:43:12.851Z,100712.13
2023-01-07T23:45:41.912Z,100706.40
2023-01-07T23:48:10.759Z,100704.91
2023-01-07T23:50:40.153Z,100704.98
2023-01-07T23:53:08.806Z,100704.14
2023-01-07T23:55:39.080Z,100699.02
2023-01-07T23:58:10.411Z,100686.24
